Nave Atria — 3FFV5 — position and weather

sailwx.info

Track history (hours):
 
Tides and Currents Weather Stations Pressure Air Temp Water Temp Dewpoint Dewpoint Depression Visibility Wind Speed Wind Dir Waves Ship Positions

Nave Atria

Last reported at 2017-Nov-23 14:47 UTC. Time now 2017-Dec-17 04:23 UTC.
Position N 27°02' W 014°56'.
Warning: this ship's position is 23 days out of date.

Length 183 m; draft 11.3 m.

Type: Tanker. MMSI: 373664000.

Date/timePositionNaut miles runAvg speedWind from/ knotsBaromVisibWave heightAir tempDewpointWater temp
2017-Nov-23 14:47N 27°02' W 014°56'311.8
2017-Nov-23 14:31N 27°04' W 014°54'611.8
2017-Nov-23 14:01N 27°08' W 014°48'611.7
2017-Nov-23 13:29N 27°12' W 014°43'612.0
2017-Nov-23 12:59N 27°16' W 014°38'612.1
2017-Nov-23 12:31N 27°19' W 014°33'612.0
2017-Nov-23 12:01N 27°23' W 014°27'611.7
2017-Nov-23 11:30N 27°26' W 014°22'611.5
2017-Nov-23 11:00N 27°30' W 014°17'812.0
2017-Nov-23 10:22N 27°35' W 014°10'412.2
2017-Nov-23 10:01N 27°38' W 014°07'612.0
2017-Nov-23 09:30N 27°41' W 014°01'612.0
2017-Nov-23 09:00N 27°45' W 013°56'612.0
2017-Nov-23 08:30N 27°49' W 013°51'611.4
2017-Nov-23 08:00N 27°52' W 013°46'612.1
2017-Nov-23 07:30N 27°56' W 013°40'612.4
2017-Nov-23 07:00N 28°00' W 013°35'911.8
2017-Nov-23 06:14N 28°08' W 013°30'311.7
2017-Nov-23 06:00N 28°11' W 013°29'6511.9
2017-Nov-23 00:33N 29°07' W 012°53'112.4
2017-Nov-23 00:29N 29°08' W 012°53'612.4
2017-Nov-23 00:01N 29°13' W 012°50'612.2
2017-Nov-22 23:31N 29°19' W 012°46'  
Track history (hours):
 
Tides and Currents Weather Stations Pressure Air Temp Water Temp Dewpoint Dewpoint Depression Visibility Wind Speed Wind Dir Waves Ship Positions

Nave Atria

Last reported at 2017-Nov-23 14:47 UTC. Time now 2017-Dec-17 04:23 UTC.
Position N 27°02' W 014°56'.
Warning: this ship's position is 23 days out of date.

Length 183 m; draft 11.3 m.

Type: Tanker. MMSI: 373664000.

Date/timePositionNaut miles runAvg speedWind from/ knotsBaromVisibWave heightAir tempDewpointWater temp
2017-Nov-23 14:47N 27°02' W 014°56'311.8
2017-Nov-23 14:31N 27°04' W 014°54'611.8
2017-Nov-23 14:01N 27°08' W 014°48'611.7
2017-Nov-23 13:29N 27°12' W 014°43'612.0
2017-Nov-23 12:59N 27°16' W 014°38'612.1
2017-Nov-23 12:31N 27°19' W 014°33'612.0
2017-Nov-23 12:01N 27°23' W 014°27'611.7
2017-Nov-23 11:30N 27°26' W 014°22'611.5
2017-Nov-23 11:00N 27°30' W 014°17'812.0
2017-Nov-23 10:22N 27°35' W 014°10'412.2
2017-Nov-23 10:01N 27°38' W 014°07'612.0
2017-Nov-23 09:30N 27°41' W 014°01'612.0
2017-Nov-23 09:00N 27°45' W 013°56'612.0
2017-Nov-23 08:30N 27°49' W 013°51'611.4
2017-Nov-23 08:00N 27°52' W 013°46'612.1
2017-Nov-23 07:30N 27°56' W 013°40'612.4
2017-Nov-23 07:00N 28°00' W 013°35'911.8
2017-Nov-23 06:14N 28°08' W 013°30'311.7
2017-Nov-23 06:00N 28°11' W 013°29'6511.9
2017-Nov-23 00:33N 29°07' W 012°53'112.4
2017-Nov-23 00:29N 29°08' W 012°53'612.4
2017-Nov-23 00:01N 29°13' W 012°50'612.2
2017-Nov-22 23:31N 29°19' W 012°46'  

Dump ship's entire track history